createdAt,value
2023-05-13T00:00:37.148Z,24.95
2023-05-13T00:01:37.146Z,24.93
2023-05-13T00:02:37.273Z,24.95
2023-05-13T00:03:37.298Z,24.96
2023-05-13T00:04:37.248Z,24.96
2023-05-13T00:05:37.305Z,24.96
2023-05-13T00:06:37.447Z,24.96
2023-05-13T00:07:37.370Z,24.95
2023-05-13T00:08:37.399Z,24.96
2023-05-13T00:09:37.409Z,24.95
2023-05-13T00:10:37.468Z,24.96
2023-05-13T00:11:37.500Z,24.95
2023-05-13T00:12:37.495Z,24.95
2023-05-13T00:13:37.536Z,24.95
2023-05-13T00:14:37.590Z,24.95
2023-05-13T00:15:37.628Z,24.95
2023-05-13T00:16:37.786Z,24.93
2023-05-13T00:17:37.711Z,24.96
2023-05-13T00:18:37.737Z,24.95
2023-05-13T00:19:37.767Z,24.95
2023-05-13T00:20:37.775Z,24.95
2023-05-13T00:21:37.801Z,24.95
2023-05-13T00:22:38.267Z,24.93
2023-05-13T00:23:37.850Z,24.95
2023-05-13T00:24:37.903Z,24.93
2023-05-13T00:25:38.008Z,24.93
2023-05-13T00:26:37.953Z,24.96
2023-05-13T00:27:37.995Z,24.95
2023-05-13T00:28:38.026Z,24.93
2023-05-13T00:29:38.082Z,24.92
2023-05-13T00:30:38.102Z,24.93
2023-05-13T00:31:38.149Z,24.93
2023-05-13T00:32:38.209Z,24.95
2023-05-13T00:33:38.214Z,24.95
2023-05-13T00:34:38.225Z,24.93
2023-05-13T00:35:38.284Z,24.93
2023-05-13T00:36:38.278Z,24.95
2023-05-13T00:37:38.324Z,24.93
2023-05-13T00:38:38.358Z,24.93
2023-05-13T00:39:38.405Z,24.93
2023-05-13T00:40:38.426Z,24.92
2023-05-13T00:41:38.466Z,24.93
2023-05-13T00:42:38.536Z,24.95
2023-05-13T00:43:38.508Z,24.92
2023-05-13T00:44:38.603Z,24.90
2023-05-13T00:45:38.629Z,24.93
2023-05-13T00:46:38.615Z,24.90
2023-05-13T00:47:38.679Z,24.92
2023-05-13T00:48:38.723Z,24.93
2023-05-13T00:49:38.723Z,24.92
2023-05-13T00:50:38.737Z,24.93
2023-05-13T00:51:38.768Z,24.90
2023-05-13T00:52:38.835Z,24.92
2023-05-13T00:53:38.860Z,24.93
2023-05-13T00:54:38.881Z,24.95
2023-05-13T00:55:38.926Z,24.92
2023-05-13T00:56:38.951Z,24.93
2023-05-13T00:57:39.314Z,24.93
2023-05-13T00:58:39.025Z,24.93
2023-05-13T00:59:39.020Z,24.92
2023-05-13T01:00:39.074Z,24.92
2023-05-13T01:01:39.163Z,24.92
2023-05-13T01:02:39.368Z,24.90
2023-05-13T01:03:39.211Z,24.90
2023-05-13T01:04:39.197Z,24.90
2023-05-13T01:05:39.203Z,24.92
2023-05-13T01:06:39.229Z,24.93
2023-05-13T01:07:39.306Z,24.93
2023-05-13T01:08:39.307Z,24.92
2023-05-13T01:09:39.394Z,24.90
2023-05-13T01:10:39.382Z,24.93
2023-05-13T01:11:39.421Z,24.90
2023-05-13T01:12:39.794Z,24.93
2023-05-13T01:13:39.498Z,24.95
2023-05-13T01:14:39.517Z,24.92
2023-05-13T01:15:39.523Z,24.90
2023-05-13T01:16:39.635Z,24.92
2023-05-13T01:17:39.835Z,24.92
2023-05-13T01:18:39.654Z,24.90
2023-05-13T01:19:39.652Z,24.92
2023-05-13T01:20:39.698Z,24.92
2023-05-13T01:21:39.725Z,24.93
2023-05-13T01:22:39.769Z,24.92
2023-05-13T01:23:39.821Z,24.90
2023-05-13T01:24:39.896Z,24.92
2023-05-13T01:25:39.854Z,24.93
2023-05-13T01:26:39.909Z,24.90
2023-05-13T01:27:39.916Z,24.92
2023-05-13T01:28:39.923Z,24.87
2023-05-13T01:29:39.982Z,24.92
2023-05-13T01:30:40.024Z,24.92
2023-05-13T01:31:40.204Z,24.89
2023-05-13T01:32:40.207Z,24.90
2023-05-13T01:33:40.123Z,24.89
2023-05-13T01:34:40.167Z,24.92
2023-05-13T01:35:40.160Z,24.92
2023-05-13T01:36:40.212Z,24.92
2023-05-13T01:37:40.263Z,24.92
2023-05-13T01:38:40.294Z,24.90
2023-05-13T01:39:40.317Z,24.90
2023-05-13T01:40:40.470Z,24.89
2023-05-13T01:41:40.364Z,24.90
2023-05-13T01:42:40.411Z,24.89
2023-05-13T01:43:40.430Z,24.90
2023-05-13T01:44:40.478Z,24.90
2023-05-13T01:45:40.495Z,24.92
2023-05-13T01:46:40.547Z,24.89
2023-05-13T01:47:40.588Z,24.90
2023-05-13T01:48:40.569Z,24.89
2023-05-13T01:49:40.626Z,24.89
2023-05-13T01:50:40.671Z,24.90
2023-05-13T01:51:40.710Z,24.89
2023-05-13T01:52:40.843Z,24.89
2023-05-13T01:53:40.767Z,24.89
2023-05-13T01:54:40.805Z,24.89
2023-05-13T01:55:40.833Z,24.87
2023-05-13T01:56:40.851Z,24.87
2023-05-13T01:57:40.912Z,24.89
2023-05-13T01:58:40.929Z,24.90
2023-05-13T01:59:40.983Z,24.87
2023-05-13T02:00:41.038Z,24.89
2023-05-13T02:01:41.090Z,24.87
2023-05-13T02:02:41.181Z,24.89
2023-05-13T02:03:41.139Z,24.87
2023-05-13T02:04:41.160Z,24.90
2023-05-13T02:05:41.183Z,24.89
2023-05-13T02:06:41.201Z,24.89
2023-05-13T02:07:41.284Z,24.87
2023-05-13T02:08:41.269Z,24.86
2023-05-13T02:09:41.290Z,24.87
2023-05-13T02:10:41.317Z,24.86
2023-05-13T02:11:41.361Z,24.87
2023-05-13T02:12:41.835Z,24.89
2023-05-13T02:13:41.426Z,24.89
2023-05-13T02:14:41.448Z,24.87
2023-05-13T02:15:41.499Z,24.87
2023-05-13T02:16:41.579Z,24.86
2023-05-13T02:17:41.608Z,24.89
2023-05-13T02:18:41.861Z,24.89
2023-05-13T02:19:41.640Z,24.87
2023-05-13T02:20:41.676Z,24.89
2023-05-13T02:21:41.683Z,24.87
2023-05-13T02:22:41.730Z,24.87
2023-05-13T02:23:41.779Z,24.87
2023-05-13T02:24:41.820Z,24.87
2023-05-13T02:25:41.820Z,24.87
2023-05-13T02:26:41.848Z,24.86
2023-05-13T02:27:41.916Z,24.90
2023-05-13T02:28:41.952Z,24.87
2023-05-13T02:29:41.973Z,24.87
2023-05-13T02:30:41.995Z,24.87
2023-05-13T02:31:42.033Z,24.87
2023-05-13T02:32:42.085Z,24.86
2023-05-13T02:33:42.135Z,24.86
2023-05-13T02:34:42.140Z,24.87
2023-05-13T02:35:42.163Z,24.87
2023-05-13T02:36:42.216Z,24.87
2023-05-13T02:37:42.232Z,24.85
2023-05-13T02:38:42.287Z,24.86
2023-05-13T02:39:42.309Z,24.85
2023-05-13T02:40:42.365Z,24.86
2023-05-13T02:41:42.348Z,24.86
2023-05-13T02:42:42.401Z,24.87
2023-05-13T02:43:42.800Z,24.86
2023-05-13T02:44:42.491Z,24.86
2023-05-13T02:45:42.517Z,24.89
2023-05-13T02:46:42.534Z,24.85
2023-05-13T02:47:42.636Z,24.85
2023-05-13T02:48:42.619Z,24.87
2023-05-13T02:49:42.630Z,24.85
2023-05-13T02:50:42.704Z,24.87
2023-05-13T02:51:42.753Z,24.87
2023-05-13T02:52:42.751Z,24.83
2023-05-13T02:53:42.790Z,24.86
2023-05-13T02:54:42.856Z,24.86
2023-05-13T02:55:42.838Z,24.86
2023-05-13T02:56:42.881Z,24.86
2023-05-13T02:57:42.955Z,24.86
2023-05-13T02:58:43.000Z,24.85
2023-05-13T02:59:43.001Z,24.85
2023-05-13T03:00:43.026Z,24.86
2023-05-13T03:01:43.219Z,24.83
2023-05-13T03:02:43.180Z,24.86
2023-05-13T03:03:43.164Z,24.86
2023-05-13T03:04:43.207Z,24.86
2023-05-13T03:05:43.179Z,24.85
2023-05-13T03:06:43.246Z,24.86
2023-05-13T03:07:43.298Z,24.85
2023-05-13T03:08:43.307Z,24.83
2023-05-13T03:09:43.365Z,24.85
2023-05-13T03:10:43.367Z,24.86
2023-05-13T03:11:43.396Z,24.85
2023-05-13T03:12:43.446Z,24.86
2023-05-13T03:13:43.467Z,24.85
2023-05-13T03:14:43.504Z,24.83
2023-05-13T03:15:44.396Z,24.83
2023-05-13T03:16:43.595Z,24.82
2023-05-13T03:17:43.646Z,24.86
2023-05-13T03:18:43.678Z,24.85
2023-05-13T03:19:43.686Z,24.83
2023-05-13T03:20:43.736Z,24.83
2023-05-13T03:21:43.805Z,24.82
2023-05-13T03:22:43.808Z,24.81
2023-05-13T03:23:43.867Z,24.85
2023-05-13T03:24:43.868Z,24.83
2023-05-13T03:25:43.902Z,24.82
2023-05-13T03:26:43.935Z,24.81
2023-05-13T03:27:43.989Z,24.83
2023-05-13T03:28:43.997Z,24.83
2023-05-13T03:29:44.028Z,24.82
2023-05-13T03:30:44.112Z,24.82
2023-05-13T03:31:44.186Z,24.83
2023-05-13T03:32:44.222Z,24.85
2023-05-13T03:33:44.224Z,24.85
2023-05-13T03:34:44.244Z,24.85
2023-05-13T03:35:44.243Z,24.86
2023-05-13T03:36:44.297Z,24.83
2023-05-13T03:37:44.355Z,24.85
2023-05-13T03:38:44.365Z,24.82
2023-05-13T03:39:44.415Z,24.85
2023-05-13T03:40:44.448Z,24.85
2023-05-13T03:41:44.523Z,24.83
2023-05-13T03:42:44.529Z,24.85
2023-05-13T03:43:44.582Z,24.85
2023-05-13T03:44:44.620Z,24.82
2023-05-13T03:45:44.641Z,24.83
2023-05-13T03:46:44.695Z,24.82
2023-05-13T03:47:44.787Z,24.86
2023-05-13T03:48:44.746Z,24.85
2023-05-13T03:49:44.788Z,24.82
2023-05-13T03:50:44.836Z,24.85
2023-05-13T03:51:44.860Z,24.82
2023-05-13T03:52:47.005Z,24.85
2023-05-13T03:53:44.980Z,24.83
2023-05-13T03:54:44.971Z,24.82
2023-05-13T03:55:45.041Z,24.82
2023-05-13T03:56:45.076Z,24.82
2023-05-13T03:57:45.127Z,24.83
2023-05-13T03:58:45.367Z,24.81
2023-05-13T03:59:45.176Z,24.85
2023-05-13T04:00:45.205Z,24.82
2023-05-13T04:01:45.270Z,24.82
2023-05-13T04:02:45.491Z,24.82
2023-05-13T04:03:45.359Z,24.83
2023-05-13T04:04:45.398Z,24.82
2023-05-13T04:05:45.423Z,24.82
2023-05-13T04:06:45.450Z,24.83
2023-05-13T04:07:45.494Z,24.83
2023-05-13T04:08:45.534Z,24.83
2023-05-13T04:09:45.588Z,24.82
2023-05-13T04:10:45.612Z,24.83
2023-05-13T04:11:45.652Z,24.83
2023-05-13T04:12:45.725Z,24.82
2023-05-13T04:13:45.741Z,24.83
2023-05-13T04:14:45.789Z,24.82
2023-05-13T04:15:45.795Z,24.81
2023-05-13T04:16:45.908Z,24.82
2023-05-13T04:17:45.904Z,24.82
2023-05-13T04:18:46.486Z,24.83
2023-05-13T04:19:45.947Z,24.83
2023-05-13T04:20:46.001Z,24.83
2023-05-13T04:21:46.033Z,24.83
2023-05-13T04:22:46.112Z,24.83
2023-05-13T04:23:46.130Z,24.83
2023-05-13T04:24:46.171Z,24.81
2023-05-13T04:25:46.238Z,24.81
2023-05-13T04:26:46.213Z,24.82
2023-05-13T04:27:46.298Z,24.81
2023-05-13T04:28:46.320Z,24.83
2023-05-13T04:29:46.364Z,24.82
2023-05-13T04:30:46.407Z,24.82
2023-05-13T04:31:46.471Z,24.83
2023-05-13T04:32:46.486Z,24.82
2023-05-13T04:33:46.496Z,24.82
2023-05-13T04:34:46.537Z,24.82
2023-05-13T04:35:46.612Z,24.82
2023-05-13T04:36:46.613Z,24.81
2023-05-13T04:37:46.652Z,24.81
2023-05-13T04:38:46.741Z,24.82
2023-05-13T04:39:46.734Z,24.83
2023-05-13T04:40:46.755Z,24.81
2023-05-13T04:41:46.812Z,24.82
2023-05-13T04:42:46.866Z,24.82
2023-05-13T04:43:46.865Z,24.82
2023-05-13T04:44:46.924Z,24.82
2023-05-13T04:45:46.949Z,24.82
2023-05-13T04:46:47.106Z,24.82
2023-05-13T04:47:47.075Z,24.82
2023-05-13T04:48:47.086Z,24.81
2023-05-13T04:49:47.110Z,24.82
2023-05-13T04:50:47.189Z,24.82
2023-05-13T04:51:47.183Z,24.78
2023-05-13T04:52:47.222Z,24.83
2023-05-13T04:53:47.343Z,24.81
2023-05-13T04:54:47.296Z,24.82
2023-05-13T04:55:47.345Z,24.79
2023-05-13T04:56:47.377Z,24.81
2023-05-13T04:57:47.433Z,24.82
2023-05-13T04:58:47.450Z,24.83
2023-05-13T04:59:47.500Z,24.81
2023-05-13T05:00:47.554Z,24.82
2023-05-13T05:01:47.638Z,24.81
2023-05-13T05:02:47.635Z,24.82
2023-05-13T05:03:47.705Z,24.82
2023-05-13T05:04:47.697Z,24.82
2023-05-13T05:05:47.746Z,24.81
2023-05-13T05:06:47.789Z,24.82
2023-05-13T05:07:47.808Z,24.83
2023-05-13T05:08:47.883Z,24.82
2023-05-13T05:09:47.904Z,24.83
2023-05-13T05:10:47.921Z,24.82
2023-05-13T05:11:47.993Z,24.83
2023-05-13T05:12:48.047Z,24.82
2023-05-13T05:13:48.062Z,24.83
2023-05-13T05:14:48.076Z,24.82
2023-05-13T05:15:48.127Z,24.81
2023-05-13T05:16:48.318Z,24.82
2023-05-13T05:17:48.306Z,24.83
2023-05-13T05:18:48.557Z,24.83
2023-05-13T05:19:48.291Z,24.83
2023-05-13T05:20:48.353Z,24.82
2023-05-13T05:21:48.413Z,24.81
2023-05-13T05:22:48.428Z,24.81
2023-05-13T05:23:48.484Z,24.83
2023-05-13T05:24:48.537Z,24.83
2023-05-13T05:25:49.827Z,24.83
2023-05-13T05:26:48.563Z,24.85
2023-05-13T05:27:48.562Z,24.82
2023-05-13T05:28:48.896Z,24.81
2023-05-13T05:29:48.517Z,24.83
2023-05-13T05:30:48.524Z,24.85
2023-05-13T05:31:48.567Z,24.83
2023-05-13T05:32:48.580Z,24.85
2023-05-13T05:33:48.904Z,24.85
2023-05-13T05:34:48.507Z,24.82
2023-05-13T05:35:48.506Z,24.83
2023-05-13T05:36:48.530Z,24.83
2023-05-13T05:37:48.495Z,24.86
2023-05-13T05:38:48.495Z,24.83
2023-05-13T05:39:48.488Z,24.83
2023-05-13T05:40:48.472Z,24.85
2023-05-13T05:41:48.459Z,24.85
2023-05-13T05:42:48.460Z,24.83
2023-05-13T05:43:48.854Z,24.83
2023-05-13T05:44:48.471Z,24.85
2023-05-13T05:45:48.523Z,24.85
2023-05-13T05:46:48.553Z,24.85
2023-05-13T05:47:48.633Z,24.85
2023-05-13T05:48:48.905Z,24.83
2023-05-13T05:49:48.634Z,24.83
2023-05-13T05:50:48.691Z,24.85
2023-05-13T05:51:48.757Z,24.85
2023-05-13T05:52:48.739Z,24.85
2023-05-13T05:53:48.880Z,24.85
2023-05-13T05:54:48.868Z,24.86
2023-05-13T05:55:50.061Z,24.85
2023-05-13T05:56:48.908Z,24.87
2023-05-13T05:57:48.973Z,24.87
2023-05-13T05:58:49.041Z,24.86
2023-05-13T05:59:49.053Z,24.86
2023-05-13T06:00:49.090Z,24.85
2023-05-13T06:01:49.136Z,24.85
2023-05-13T06:02:49.303Z,24.86
2023-05-13T06:03:50.501Z,24.85
2023-05-13T06:04:49.309Z,24.85
2023-05-13T06:05:49.282Z,24.86
2023-05-13T06:06:49.318Z,24.90
2023-05-13T06:07:49.311Z,24.87
2023-05-13T06:08:49.360Z,24.87
2023-05-13T06:09:49.393Z,24.87
2023-05-13T06:10:49.433Z,24.89
2023-05-13T06:11:49.497Z,24.86
2023-05-13T06:12:49.510Z,24.89
2023-05-13T06:13:49.603Z,24.89
2023-05-13T06:14:49.606Z,24.89
2023-05-13T06:15:49.631Z,24.87
2023-05-13T06:16:49.696Z,24.92
2023-05-13T06:17:49.760Z,24.92
2023-05-13T06:18:49.822Z,24.90
2023-05-13T06:19:49.812Z,24.87
2023-05-13T06:20:49.858Z,24.87
2023-05-13T06:21:49.916Z,24.90
2023-05-13T06:22:49.917Z,24.89
2023-05-13T06:23:50.443Z,24.90
2023-05-13T06:24:50.010Z,24.87
2023-05-13T06:25:50.070Z,24.89
2023-05-13T06:26:50.092Z,24.89
2023-05-13T06:27:50.092Z,24.90
2023-05-13T06:28:50.379Z,24.87
2023-05-13T06:29:50.172Z,24.92
2023-05-13T06:30:50.297Z,24.90
2023-05-13T06:31:50.411Z,24.90
2023-05-13T06:33:01.001Z,24.92
2023-05-13T06:33:51.330Z,24.93
2023-05-13T06:34:50.268Z,24.93
2023-05-13T06:35:50.280Z,24.92
2023-05-13T06:36:50.273Z,24.93
2023-05-13T06:37:50.274Z,24.93
2023-05-13T06:38:50.242Z,24.92
2023-05-13T06:39:50.256Z,24.95
2023-05-13T06:40:50.251Z,24.95
2023-05-13T06:41:50.281Z,24.96
2023-05-13T06:42:50.346Z,24.93
2023-05-13T06:43:50.428Z,24.97
2023-05-13T06:44:50.222Z,24.97
2023-05-13T06:45:50.310Z,24.96
2023-05-13T06:46:50.290Z,24.99
2023-05-13T06:47:50.229Z,24.99
2023-05-13T06:48:50.302Z,24.97
2023-05-13T06:49:50.361Z,24.99
2023-05-13T06:50:50.315Z,24.99
2023-05-13T06:51:50.401Z,25.00
2023-05-13T06:52:50.364Z,25.00
2023-05-13T06:53:50.358Z,25.00
2023-05-13T06:54:50.885Z,24.97
2023-05-13T06:55:50.464Z,25.02
2023-05-13T06:56:50.505Z,25.03
2023-05-13T06:57:50.519Z,25.05
2023-05-13T06:58:50.557Z,25.05
2023-05-13T06:59:50.554Z,25.06
2023-05-13T07:00:50.653Z,25.09
2023-05-13T07:01:50.625Z,25.10
2023-05-13T07:02:50.684Z,25.07
2023-05-13T07:03:50.780Z,25.10
2023-05-13T07:04:50.764Z,25.13
2023-05-13T07:05:50.757Z,25.13
2023-05-13T07:06:50.798Z,25.14
2023-05-13T07:07:50.813Z,25.14
2023-05-13T07:08:50.851Z,25.14
2023-05-13T07:09:50.903Z,25.14
2023-05-13T07:10:50.892Z,25.19
2023-05-13T07:11:50.970Z,25.19
2023-05-13T07:12:50.958Z,25.19
2023-05-13T07:13:51.026Z,25.20
2023-05-13T07:14:51.040Z,25.22
2023-05-13T07:15:51.047Z,25.24
2023-05-13T07:16:51.088Z,25.22
2023-05-13T07:17:51.148Z,25.23
2023-05-13T07:18:51.158Z,25.23
2023-05-13T07:19:51.185Z,25.22
2023-05-13T07:20:51.207Z,25.24
2023-05-13T07:21:51.217Z,25.26
2023-05-13T07:22:51.261Z,25.24
2023-05-13T07:23:51.319Z,25.26
2023-05-13T07:24:51.313Z,25.26
2023-05-13T07:25:51.341Z,25.26
2023-05-13T07:26:51.387Z,25.27
2023-05-13T07:27:51.388Z,25.27
2023-05-13T07:28:51.458Z,25.29
2023-05-13T07:29:51.517Z,25.27
2023-05-13T07:30:51.568Z,25.27
2023-05-13T07:31:51.519Z,25.27
2023-05-13T07:32:53.714Z,25.24
2023-05-13T07:33:51.608Z,25.24
2023-05-13T07:34:51.614Z,25.24
2023-05-13T07:35:51.685Z,25.27
2023-05-13T07:36:51.689Z,25.24
2023-05-13T07:37:51.738Z,25.27
2023-05-13T07:38:51.784Z,25.27
2023-05-13T07:39:51.884Z,25.27
2023-05-13T07:40:51.844Z,25.24
2023-05-13T07:41:51.850Z,25.27
2023-05-13T07:42:51.927Z,25.27
2023-05-13T07:43:51.888Z,25.24
2023-05-13T07:44:51.932Z,25.29
2023-05-13T07:45:51.984Z,25.31
2023-05-13T07:46:52.116Z,25.33
2023-05-13T07:47:52.080Z,25.30
2023-05-13T07:48:52.047Z,25.33
2023-05-13T07:49:52.388Z,25.33
2023-05-13T07:50:52.118Z,25.34
2023-05-13T07:51:52.134Z,25.36
2023-05-13T07:52:52.147Z,25.38
2023-05-13T07:53:52.183Z,25.37
2023-05-13T07:54:52.223Z,25.37
2023-05-13T07:55:52.259Z,25.41
2023-05-13T07:56:52.279Z,25.41
2023-05-13T07:57:52.270Z,25.42
2023-05-13T07:58:52.329Z,25.47
2023-05-13T07:59:52.448Z,25.42
2023-05-13T08:00:52.402Z,25.47
2023-05-13T08:01:52.406Z,25.45
2023-05-13T08:02:52.499Z,25.47
2023-05-13T08:03:52.509Z,25.45
2023-05-13T08:04:52.529Z,25.50
2023-05-13T08:05:52.483Z,25.51
2023-05-13T08:06:52.486Z,25.50
2023-05-13T08:07:52.500Z,25.50
2023-05-13T08:08:52.519Z,25.48
2023-05-13T08:09:52.938Z,25.51
2023-05-13T08:10:52.543Z,25.50
2023-05-13T08:11:52.546Z,25.51
2023-05-13T08:12:52.550Z,25.50
2023-05-13T08:13:52.592Z,25.54
2023-05-13T08:14:52.934Z,25.52
2023-05-13T08:15:52.631Z,25.55
2023-05-13T08:16:52.774Z,25.52
2023-05-13T08:17:52.686Z,25.55
2023-05-13T08:18:52.733Z,25.57
2023-05-13T08:19:52.951Z,25.54
2023-05-13T08:20:52.694Z,25.54
2023-05-13T08:21:52.722Z,25.57
2023-05-13T08:22:52.756Z,25.57
2023-05-13T08:23:52.696Z,25.54
2023-05-13T08:24:53.423Z,25.55
2023-05-13T08:25:52.769Z,25.57
2023-05-13T08:26:52.745Z,25.52
2023-05-13T08:27:52.778Z,25.55
2023-05-13T08:28:54.691Z,25.57
2023-05-13T08:29:52.929Z,25.58
2023-05-13T08:30:52.829Z,25.58
2023-05-13T08:31:52.857Z,25.60
2023-05-13T08:32:52.942Z,25.55
2023-05-13T08:33:52.811Z,25.58
2023-05-13T08:34:52.834Z,25.58
2023-05-13T08:35:52.813Z,25.58
2023-05-13T08:36:52.862Z,25.58
2023-05-13T08:37:52.869Z,25.57
2023-05-13T08:38:52.874Z,25.58
2023-05-13T08:39:52.884Z,25.57
2023-05-13T08:40:52.905Z,25.60
2023-05-13T08:41:52.871Z,25.60
2023-05-13T08:42:52.886Z,25.62
2023-05-13T08:43:52.900Z,25.60
2023-05-13T08:44:52.930Z,25.61
2023-05-13T08:45:52.964Z,25.64
2023-05-13T08:46:52.918Z,25.64
2023-05-13T08:47:53.100Z,25.67
2023-05-13T08:48:52.954Z,25.65
2023-05-13T08:49:53.440Z,25.68
2023-05-13T08:50:52.964Z,25.70
2023-05-13T08:51:52.972Z,25.72
2023-05-13T08:52:52.972Z,25.74
2023-05-13T08:53:52.988Z,25.75
2023-05-13T08:54:52.949Z,25.77
2023-05-13T08:55:53.014Z,25.77
2023-05-13T08:56:52.999Z,25.79
2023-05-13T08:57:52.945Z,25.78
2023-05-13T08:58:52.965Z,25.82
2023-05-13T08:59:53.493Z,25.82
2023-05-13T09:00:53.010Z,25.84
2023-05-13T09:01:53.036Z,25.84
2023-05-13T09:02:52.959Z,25.85
2023-05-13T09:03:52.972Z,25.88
2023-05-13T09:04:52.974Z,25.92
2023-05-13T09:05:52.960Z,25.92
2023-05-13T09:06:52.961Z,25.91
2023-05-13T09:07:53.023Z,25.93
2023-05-13T09:08:53.035Z,25.93
2023-05-13T09:09:53.060Z,25.95
2023-05-13T09:10:53.081Z,25.95
2023-05-13T09:11:53.067Z,25.93
2023-05-13T09:12:53.182Z,25.96
2023-05-13T09:13:53.190Z,26.00
2023-05-13T09:14:53.438Z,25.99
2023-05-13T09:15:53.302Z,26.02
2023-05-13T09:16:53.324Z,26.02
2023-05-13T09:17:53.417Z,26.05
2023-05-13T09:18:53.596Z,26.05
2023-05-13T09:19:53.966Z,26.05
2023-05-13T09:20:53.516Z,26.06
2023-05-13T09:21:53.602Z,26.06
2023-05-13T09:22:53.646Z,26.09
2023-05-13T09:23:53.697Z,26.10
2023-05-13T09:24:53.959Z,26.09
2023-05-13T09:25:53.811Z,26.09
2023-05-13T09:26:53.874Z,26.10
2023-05-13T09:27:53.925Z,26.12
2023-05-13T09:28:53.988Z,26.08
2023-05-13T09:29:54.059Z,26.12
2023-05-13T09:30:54.130Z,26.10
2023-05-13T09:31:54.172Z,26.12
2023-05-13T09:32:54.333Z,26.12
2023-05-13T09:33:54.285Z,26.15
2023-05-13T09:34:54.382Z,26.15
2023-05-13T09:35:54.454Z,26.19
2023-05-13T09:36:54.480Z,26.19
2023-05-13T09:37:54.512Z,26.16
2023-05-13T09:38:54.604Z,26.15
2023-05-13T09:39:54.982Z,26.12
2023-05-13T09:40:54.776Z,26.16
2023-05-13T09:41:54.787Z,26.13
2023-05-13T09:42:54.826Z,26.16
2023-05-13T09:43:54.917Z,26.15
2023-05-13T09:44:55.468Z,26.15
2023-05-13T09:45:55.036Z,26.15
2023-05-13T09:46:55.069Z,26.15
2023-05-13T09:47:55.196Z,26.16
2023-05-13T09:48:57.053Z,26.13
2023-05-13T09:49:55.244Z,26.15
2023-05-13T09:50:55.361Z,26.13
2023-05-13T09:51:55.391Z,26.12
2023-05-13T09:52:55.446Z,26.12
2023-05-13T09:53:55.500Z,26.10
2023-05-13T09:54:55.574Z,26.09
2023-05-13T09:55:55.615Z,26.12
2023-05-13T09:56:55.672Z,26.13
2023-05-13T09:57:55.758Z,26.15
2023-05-13T09:58:55.833Z,26.13
2023-05-13T09:59:55.963Z,26.12
2023-05-13T10:00:56.000Z,26.13
2023-05-13T10:01:56.002Z,26.13
2023-05-13T10:02:56.084Z,26.13
2023-05-13T10:03:56.192Z,26.16
2023-05-13T10:04:56.447Z,26.15
2023-05-13T10:05:56.250Z,26.15
2023-05-13T10:06:56.293Z,26.17
2023-05-13T10:07:56.367Z,26.16
2023-05-13T10:08:56.417Z,26.15
2023-05-13T10:09:56.975Z,26.17
2023-05-13T10:10:56.542Z,26.17
2023-05-13T10:11:56.595Z,26.20
2023-05-13T10:12:56.680Z,26.19
2023-05-13T10:13:56.718Z,26.20
2023-05-13T10:14:56.795Z,26.23
2023-05-13T10:15:56.821Z,26.23
2023-05-13T10:16:57.028Z,26.26
2023-05-13T10:17:56.998Z,26.25
2023-05-13T10:18:57.087Z,26.25
2023-05-13T10:19:57.057Z,26.27
2023-05-13T10:20:57.146Z,26.26
2023-05-13T10:21:57.224Z,26.27
2023-05-13T10:22:57.302Z,26.27
2023-05-13T10:23:57.272Z,26.27
2023-05-13T10:24:57.342Z,26.23
2023-05-13T10:25:57.419Z,26.22
2023-05-13T10:26:57.464Z,26.25
2023-05-13T10:27:57.532Z,26.23
2023-05-13T10:28:57.602Z,26.23
2023-05-13T10:29:57.992Z,26.25
2023-05-13T10:30:57.697Z,26.22
2023-05-13T10:31:57.780Z,26.25
2023-05-13T10:32:57.840Z,26.23
2023-05-13T10:33:57.849Z,26.25
2023-05-13T10:34:57.900Z,26.22
2023-05-13T10:35:57.994Z,26.22
2023-05-13T10:36:58.036Z,26.22
2023-05-13T10:37:58.081Z,26.22
2023-05-13T10:38:58.139Z,26.20
2023-05-13T10:39:58.166Z,26.19
2023-05-13T10:40:58.477Z,26.19
2023-05-13T10:41:58.284Z,26.17
2023-05-13T10:42:58.358Z,26.17
2023-05-13T10:43:58.403Z,26.16
2023-05-13T10:44:58.431Z,26.12
2023-05-13T10:45:59.072Z,26.15
2023-05-13T10:46:58.561Z,26.15
2023-05-13T10:47:58.661Z,26.16
2023-05-13T10:48:58.692Z,26.13
2023-05-13T10:49:58.787Z,26.09
2023-05-13T10:50:58.851Z,26.09
2023-05-13T10:51:58.893Z,26.10
2023-05-13T10:52:58.948Z,26.08
2023-05-13T10:53:59.096Z,26.06
2023-05-13T10:54:59.082Z,26.05
2023-05-13T10:55:59.481Z,26.05
2023-05-13T10:56:59.229Z,25.99
2023-05-13T10:57:59.232Z,26.02
2023-05-13T10:58:59.314Z,25.96
2023-05-13T10:59:59.362Z,25.98
2023-05-13T11:00:59.383Z,25.95
2023-05-13T11:01:59.546Z,25.92
2023-05-13T11:02:59.538Z,25.92
2023-05-13T11:03:59.603Z,25.91
2023-05-13T11:04:59.533Z,25.88
2023-05-13T11:05:59.578Z,25.87
2023-05-13T11:06:59.538Z,25.85
2023-05-13T11:07:59.592Z,25.87
2023-05-13T11:08:59.599Z,25.82
2023-05-13T11:09:59.562Z,25.81
2023-05-13T11:10:59.971Z,25.79
2023-05-13T11:11:59.677Z,25.79
2023-05-13T11:12:59.638Z,25.78
2023-05-13T11:13:59.587Z,25.77
2023-05-13T11:14:59.620Z,25.75
2023-05-13T11:15:59.654Z,25.77
2023-05-13T11:16:59.619Z,25.74
2023-05-13T11:17:59.687Z,25.74
2023-05-13T11:18:59.647Z,25.74
2023-05-13T11:19:59.634Z,25.72
2023-05-13T11:20:59.653Z,25.72
2023-05-13T11:21:59.610Z,25.72
2023-05-13T11:22:59.596Z,25.72
2023-05-13T11:23:59.589Z,25.71
2023-05-13T11:24:59.572Z,25.71
2023-05-13T11:25:59.611Z,25.72
2023-05-13T11:26:59.615Z,25.71
2023-05-13T11:27:59.588Z,25.70
2023-05-13T11:28:59.573Z,25.70
2023-05-13T11:29:59.588Z,25.71
2023-05-13T11:30:59.579Z,25.71
2023-05-13T11:32:00.657Z,25.68
2023-05-13T11:32:59.660Z,25.71
2023-05-13T11:33:59.565Z,25.71
2023-05-13T11:34:59.523Z,25.70
2023-05-13T11:35:59.991Z,25.71
2023-05-13T11:36:59.548Z,25.71
2023-05-13T11:38:00.457Z,25.71
2023-05-13T11:38:59.523Z,25.70
2023-05-13T11:39:59.552Z,25.72
2023-05-13T11:40:59.978Z,25.74
2023-05-13T11:41:59.517Z,25.70
2023-05-13T11:42:59.488Z,25.71
2023-05-13T11:43:59.544Z,25.71
2023-05-13T11:44:59.499Z,25.72
2023-05-13T11:46:00.013Z,25.72
2023-05-13T11:46:59.545Z,25.74
2023-05-13T11:47:59.616Z,25.72
2023-05-13T11:48:59.522Z,25.75
2023-05-13T11:49:59.556Z,25.75
2023-05-13T11:50:59.986Z,25.77
2023-05-13T11:51:59.563Z,25.77
2023-05-13T11:52:59.555Z,25.77
2023-05-13T11:53:59.559Z,25.78
2023-05-13T11:54:59.584Z,25.77
2023-05-13T11:55:59.583Z,25.78
2023-05-13T11:56:59.598Z,25.79
2023-05-13T11:57:59.654Z,25.79
2023-05-13T11:58:59.640Z,25.79
2023-05-13T11:59:59.642Z,25.75
2023-05-13T12:00:59.657Z,25.78
2023-05-13T12:01:59.708Z,25.77
2023-05-13T12:02:59.711Z,25.75
2023-05-13T12:03:59.675Z,25.75
2023-05-13T12:04:59.699Z,25.75
2023-05-13T12:05:59.989Z,25.75
2023-05-13T12:06:59.652Z,25.77
2023-05-13T12:07:59.675Z,25.74
2023-05-13T12:08:59.684Z,25.74
2023-05-13T12:09:59.676Z,25.74
2023-05-13T12:11:00.002Z,25.74
2023-05-13T12:11:59.688Z,25.75
2023-05-13T12:12:59.673Z,25.74
2023-05-13T12:13:59.689Z,25.74
2023-05-13T12:14:59.702Z,25.75
2023-05-13T12:15:59.707Z,25.75
2023-05-13T12:16:59.695Z,25.72
2023-05-13T12:17:59.719Z,25.74
2023-05-13T12:18:59.729Z,25.75
2023-05-13T12:19:59.712Z,25.72
2023-05-13T12:21:00.490Z,25.74
2023-05-13T12:21:59.718Z,25.71
2023-05-13T12:22:59.723Z,25.75
2023-05-13T12:23:59.686Z,25.71
2023-05-13T12:24:59.713Z,25.72
2023-05-13T12:25:59.723Z,25.75
2023-05-13T12:26:59.712Z,25.72
2023-05-13T12:27:59.700Z,25.71
2023-05-13T12:28:59.716Z,25.72
2023-05-13T12:29:59.711Z,25.74
2023-05-13T12:31:00.049Z,25.72
2023-05-13T12:31:59.775Z,25.72
2023-05-13T12:32:59.721Z,25.71
2023-05-13T12:33:59.758Z,25.72
2023-05-13T12:34:59.739Z,25.74
2023-05-13T12:35:59.996Z,25.71
2023-05-13T12:36:59.750Z,25.72
2023-05-13T12:37:59.721Z,25.75
2023-05-13T12:39:00.685Z,25.71
2023-05-13T12:39:59.734Z,25.74
2023-05-13T12:40:59.730Z,25.75
2023-05-13T12:41:59.710Z,25.71
2023-05-13T12:42:59.681Z,25.74
2023-05-13T12:43:59.709Z,25.71
2023-05-13T12:44:59.726Z,25.71
2023-05-13T12:45:59.738Z,25.72
2023-05-13T12:46:59.733Z,25.72
2023-05-13T12:47:59.737Z,25.72
2023-05-13T12:48:59.731Z,25.72
2023-05-13T12:49:59.720Z,25.72
2023-05-13T12:51:02.083Z,25.71
2023-05-13T12:51:59.956Z,25.71
2023-05-13T12:52:59.983Z,25.71